createdAt,value
2022-09-24T00:01:38.486Z,52.90
2022-09-24T00:05:02.138Z,52.90
2022-09-24T00:08:25.697Z,53.10
2022-09-24T00:11:51.165Z,52.90
2022-09-24T00:15:16.173Z,53.00
2022-09-24T00:18:40.866Z,53.10
2022-09-24T00:22:04.469Z,52.70
2022-09-24T00:25:53.867Z,53.00
2022-09-24T00:29:19.685Z,53.00
2022-09-24T00:32:44.625Z,53.00
2022-09-24T00:36:11.283Z,53.00
2022-09-24T00:39:34.822Z,52.70
2022-09-24T00:42:58.562Z,52.50
2022-09-24T00:46:27.398Z,52.60
2022-09-24T00:49:52.908Z,52.70
2022-09-24T00:53:19.482Z,53.00
2022-09-24T00:56:45.504Z,52.90
2022-09-24T01:00:10.367Z,52.80
2022-09-24T01:03:40.981Z,53.10
2022-09-24T01:07:05.965Z,54.10
2022-09-24T01:10:51.653Z,54.20
2022-09-24T01:14:41.222Z,54.20
2022-09-24T01:18:09.007Z,54.40
2022-09-24T01:21:39.984Z,54.30
2022-09-24T01:25:14.256Z,54.60
2022-09-24T01:28:52.325Z,54.70
2022-09-24T01:32:22.559Z,54.00
2022-09-24T01:35:50.083Z,53.50
2022-09-24T01:39:15.171Z,53.80
2022-09-24T01:42:40.765Z,53.80
2022-09-24T01:46:07.279Z,54.00
2022-09-24T01:49:32.314Z,54.00
2022-09-24T01:53:02.746Z,53.90
2022-09-24T01:56:31.367Z,53.90
2022-09-24T02:00:00.324Z,53.90
2022-09-24T02:03:29.757Z,53.90
2022-09-24T02:07:01.900Z,54.20
2022-09-24T02:10:25.846Z,54.20
2022-09-24T02:13:54.819Z,54.10
2022-09-24T02:17:19.386Z,54.30
2022-09-24T02:20:45.079Z,54.50
2022-09-24T02:24:15.085Z,54.50
2022-09-24T02:27:39.056Z,54.80
2022-09-24T02:31:07.861Z,54.70
2022-09-24T02:34:35.360Z,54.80
2022-09-24T02:38:02.749Z,54.90
2022-09-24T02:41:32.133Z,55.10
2022-09-24T02:44:57.373Z,55.00
2022-09-24T02:48:20.889Z,55.10
2022-09-24T02:51:45.203Z,55.10
2022-09-24T02:55:09.200Z,55.10
2022-09-24T02:58:34.627Z,55.30
2022-09-24T03:01:58.320Z,55.30
2022-09-24T03:05:21.978Z,55.30
2022-09-24T03:08:45.835Z,55.50
2022-09-24T03:12:09.652Z,55.50
2022-09-24T03:15:34.544Z,55.50
2022-09-24T03:18:58.111Z,55.50
2022-09-24T03:22:21.827Z,56.30
2022-09-24T03:25:45.405Z,55.60
2022-09-24T03:29:10.118Z,55.60
2022-09-24T03:32:34.425Z,55.60
2022-09-24T03:35:59.232Z,55.70
2022-09-24T03:39:22.781Z,55.90
2022-09-24T03:42:46.480Z,55.90
2022-09-24T03:46:17.032Z,56.00
2022-09-24T03:49:42.389Z,55.90
2022-09-24T03:53:06.155Z,55.90
2022-09-24T03:56:29.695Z,55.90
2022-09-24T03:59:54.098Z,56.30
2022-09-24T04:03:17.848Z,56.10
2022-09-24T04:06:42.882Z,56.10
2022-09-24T04:10:07.301Z,56.60
2022-09-24T04:13:31.055Z,56.90
2022-09-24T04:16:54.569Z,57.50
2022-09-24T04:20:22.637Z,57.70
2022-09-24T04:23:47.545Z,57.90
2022-09-24T04:27:11.180Z,58.10
2022-09-24T04:30:36.301Z,58.70
2022-09-24T04:34:00.050Z,59.60
2022-09-24T04:37:23.901Z,60.10
2022-09-24T04:40:49.283Z,61.50
2022-09-24T04:44:13.272Z,61.80
2022-09-24T04:47:37.149Z,61.80
2022-09-24T04:51:02.075Z,62.20
2022-09-24T04:54:26.029Z,62.60
2022-09-24T04:57:51.379Z,63.10
2022-09-24T05:01:15.475Z,63.20
2022-09-24T05:04:39.469Z,63.20
2022-09-24T05:08:04.735Z,63.40
2022-09-24T05:11:29.035Z,63.20
2022-09-24T05:14:53.946Z,62.80
2022-09-24T05:18:17.461Z,62.50
2022-09-24T05:21:40.983Z,62.80
2022-09-24T05:25:04.806Z,62.70
2022-09-24T05:28:27.361Z,63.50
2022-09-24T05:31:52.604Z,62.90
2022-09-24T05:35:16.596Z,63.10
2022-09-24T05:38:41.861Z,62.60
2022-09-24T05:42:06.841Z,62.60
2022-09-24T05:45:30.854Z,62.70
2022-09-24T05:48:55.862Z,62.90
2022-09-24T05:52:19.430Z,62.80
2022-09-24T05:55:44.037Z,62.90
2022-09-24T05:59:07.686Z,63.30
2022-09-24T06:02:31.418Z,63.20
2022-09-24T06:05:59.581Z,63.50
2022-09-24T06:09:23.097Z,63.70
2022-09-24T06:12:47.084Z,63.90
2022-09-24T06:16:12.663Z,64.10
2022-09-24T06:19:36.244Z,64.20
2022-09-24T06:23:02.304Z,64.20
2022-09-24T06:26:27.278Z,64.10
2022-09-24T06:29:50.975Z,64.80
2022-09-24T06:33:15.085Z,65.10
2022-09-24T06:36:40.134Z,65.60
2022-09-24T06:40:06.129Z,66.30
2022-09-24T06:43:29.792Z,66.40
2022-09-24T06:46:53.489Z,66.60
2022-09-24T06:50:17.677Z,66.80
2022-09-24T06:53:41.868Z,66.70
2022-09-24T06:57:08.863Z,66.90
2022-09-24T07:00:32.673Z,66.60
2022-09-24T07:03:56.408Z,66.50
2022-09-24T07:07:33.201Z,66.40
2022-09-24T07:10:56.937Z,65.80
2022-09-24T07:14:22.050Z,65.90
2022-09-24T07:17:45.681Z,65.30
2022-09-24T07:21:09.333Z,64.60
2022-09-24T07:24:32.962Z,64.60
2022-09-24T07:27:56.575Z,65.20
2022-09-24T07:31:21.836Z,65.20
2022-09-24T07:34:45.854Z,65.30
2022-09-24T07:38:12.980Z,65.50
2022-09-24T07:41:41.943Z,66.00
2022-09-24T07:45:06.209Z,66.50
2022-09-24T07:48:31.178Z,66.70
2022-09-24T07:51:55.077Z,67.00
2022-09-24T07:55:18.801Z,67.30
2022-09-24T07:58:42.370Z,67.20
2022-09-24T08:02:15.091Z,67.20
2022-09-24T08:05:45.490Z,67.70
2022-09-24T08:09:09.328Z,67.40
2022-09-24T08:12:33.031Z,67.20
2022-09-24T08:15:59.124Z,66.90
2022-09-24T08:19:22.919Z,67.50
2022-09-24T08:22:48.325Z,68.20
2022-09-24T08:26:12.836Z,67.30
2022-09-24T08:29:36.944Z,68.00
2022-09-24T08:33:00.680Z,66.50
2022-09-24T08:36:24.300Z,66.60
2022-09-24T08:39:49.275Z,65.70
2022-09-24T08:43:24.865Z,65.30
2022-09-24T08:47:11.185Z,65.50
2022-09-24T08:50:39.484Z,65.10
2022-09-24T08:54:06.636Z,65.90
2022-09-24T08:57:38.168Z,65.70
2022-09-24T09:01:08.528Z,66.10
2022-09-24T09:04:39.961Z,65.30
2022-09-24T09:08:33.781Z,65.20
2022-09-24T09:12:01.813Z,65.00
2022-09-24T09:15:30.014Z,66.10
2022-09-24T09:18:58.960Z,64.70
2022-09-24T09:22:28.242Z,64.90
2022-09-24T09:25:56.946Z,65.30
2022-09-24T09:29:20.574Z,65.00
2022-09-24T09:32:59.730Z,64.40
2022-09-24T09:36:45.353Z,65.20
2022-09-24T09:40:30.694Z,64.80
2022-09-24T09:44:00.739Z,65.70
2022-09-24T09:47:35.927Z,64.90
2022-09-24T09:51:05.159Z,65.30
2022-09-24T09:54:38.019Z,66.20
2022-09-24T09:58:17.778Z,66.10
2022-09-24T10:01:43.894Z,66.80
2022-09-24T10:05:22.221Z,67.10
2022-09-24T10:08:51.904Z,67.50
2022-09-24T10:12:21.959Z,68.00
2022-09-24T10:15:51.898Z,67.50
2022-09-24T10:19:21.467Z,67.90
2022-09-24T10:22:50.352Z,67.60
2022-09-24T10:26:16.101Z,68.50
2022-09-24T10:29:57.501Z,67.70
2022-09-24T10:33:21.449Z,67.20
2022-09-24T10:36:51.613Z,66.80
2022-09-24T10:40:16.791Z,65.60
2022-09-24T10:43:51.507Z,65.30
2022-09-24T10:47:26.622Z,64.30
2022-09-24T10:50:57.026Z,64.50
2022-09-24T10:54:40.046Z,64.20
2022-09-24T10:58:07.324Z,63.90
2022-09-24T11:01:42.835Z,63.00
2022-09-24T11:05:13.148Z,63.40
2022-09-24T11:08:56.846Z,62.80
2022-09-24T11:12:30.241Z,63.80
2022-09-24T11:16:16.187Z,62.20
2022-09-24T11:20:13.989Z,62.90
2022-09-24T11:24:06.430Z,61.20
2022-09-24T11:27:52.540Z,60.00
2022-09-24T11:31:24.451Z,61.20
2022-09-24T11:35:14.812Z,60.40
2022-09-24T11:38:49.862Z,60.80
2022-09-24T11:42:26.291Z,60.70
2022-09-24T11:46:03.651Z,60.60
2022-09-24T11:49:43.895Z,60.30
2022-09-24T11:53:14.895Z,61.10
2022-09-24T11:56:43.010Z,60.30
2022-09-24T12:00:13.702Z,60.70
2022-09-24T12:03:42.041Z,60.50
2022-09-24T12:07:12.313Z,60.40
2022-09-24T12:10:46.092Z,59.90
2022-09-24T12:14:15.636Z,59.40
2022-09-24T12:17:45.285Z,59.60
2022-09-24T12:21:12.456Z,60.00
2022-09-24T12:24:40.067Z,60.70
2022-09-24T12:28:05.216Z,60.50
2022-09-24T12:31:51.180Z,60.40
2022-09-24T12:35:25.285Z,61.30
2022-09-24T12:38:54.292Z,62.30
2022-09-24T12:42:21.726Z,63.80
2022-09-24T12:45:47.738Z,65.30
2022-09-24T12:49:25.476Z,65.90
2022-09-24T12:52:49.447Z,65.80
2022-09-24T12:56:13.205Z,66.30
2022-09-24T12:59:48.273Z,66.90
2022-09-24T13:03:32.319Z,66.40
2022-09-24T13:06:56.110Z,66.50
2022-09-24T13:10:25.849Z,66.70
2022-09-24T13:14:00.310Z,66.40
2022-09-24T13:17:24.822Z,66.10
2022-09-24T13:21:03.048Z,65.80
2022-09-24T13:24:31.316Z,65.00
2022-09-24T13:28:00.967Z,65.00
2022-09-24T13:31:30.999Z,65.60
2022-09-24T13:34:55.446Z,65.10
2022-09-24T13:38:25.537Z,65.50
2022-09-24T13:41:57.738Z,64.60
2022-09-24T13:45:23.596Z,63.60
2022-09-24T13:48:52.295Z,64.20
2022-09-24T13:52:27.326Z,62.70
2022-09-24T13:55:55.838Z,63.00
2022-09-24T13:59:19.557Z,62.10
2022-09-24T14:02:46.215Z,62.70
2022-09-24T14:06:15.250Z,62.20
2022-09-24T14:09:38.917Z,61.00
2022-09-24T14:13:22.183Z,61.50
2022-09-24T14:16:45.801Z,62.80
2022-09-24T14:20:15.618Z,62.80
2022-09-24T14:23:43.577Z,63.50
2022-09-24T14:27:10.490Z,64.40
2022-09-24T14:30:39.992Z,63.80
2022-09-24T14:34:05.890Z,62.50
2022-09-24T14:37:32.824Z,63.50
2022-09-24T14:41:01.245Z,63.90
2022-09-24T14:44:27.131Z,64.20
2022-09-24T14:48:02.621Z,64.00
2022-09-24T14:51:29.278Z,63.70
2022-09-24T14:55:02.991Z,64.50
2022-09-24T14:58:36.339Z,64.80
2022-09-24T15:02:17.252Z,64.60
2022-09-24T15:05:42.905Z,65.00
2022-09-24T15:09:08.966Z,65.30
2022-09-24T15:12:34.424Z,65.70
2022-09-24T15:16:07.176Z,65.40
2022-09-24T15:19:32.020Z,65.60
2022-09-24T15:22:57.058Z,65.60
2022-09-24T15:26:21.051Z,65.10
2022-09-24T15:29:44.645Z,66.20
2022-09-24T15:33:12.072Z,65.90
2022-09-24T15:36:35.739Z,66.60
2022-09-24T15:40:08.224Z,66.40
2022-09-24T15:43:32.005Z,66.50
2022-09-24T15:46:55.739Z,66.20
2022-09-24T15:50:20.219Z,66.00
2022-09-24T15:53:43.822Z,65.50
2022-09-24T15:57:11.957Z,65.80
2022-09-24T16:00:35.689Z,65.70
2022-09-24T16:03:59.323Z,65.00
2022-09-24T16:07:23.102Z,63.30
2022-09-24T16:10:47.406Z,64.20
2022-09-24T16:14:12.400Z,65.10
2022-09-24T16:17:36.108Z,64.50
2022-09-24T16:20:59.723Z,64.60
2022-09-24T16:24:23.496Z,65.10
2022-09-24T16:27:47.153Z,66.30
2022-09-24T16:31:12.110Z,66.80
2022-09-24T16:34:35.758Z,66.90
2022-09-24T16:37:59.378Z,68.00
2022-09-24T16:41:23.007Z,68.10
2022-09-24T16:44:46.688Z,66.80
2022-09-24T16:48:13.831Z,67.00
2022-09-24T16:51:37.918Z,67.10
2022-09-24T16:55:01.604Z,67.30
2022-09-24T16:58:25.196Z,67.10
2022-09-24T17:01:48.870Z,67.50
2022-09-24T17:05:14.038Z,67.30
2022-09-24T17:08:55.386Z,67.60
2022-09-24T17:12:19.200Z,67.80
2022-09-24T17:15:42.837Z,68.60
2022-09-24T17:19:07.968Z,69.10
2022-09-24T17:22:32.894Z,69.80
2022-09-24T17:26:02.603Z,71.10
2022-09-24T17:29:31.238Z,70.40
2022-09-24T17:32:56.268Z,70.60
2022-09-24T17:36:19.859Z,70.80
2022-09-24T17:39:44.883Z,71.00
2022-09-24T17:43:08.494Z,70.90
2022-09-24T17:46:35.377Z,70.60
2022-09-24T17:50:00.005Z,70.40
2022-09-24T17:53:23.707Z,70.60
2022-09-24T17:56:48.635Z,70.60
2022-09-24T18:00:12.980Z,70.90
2022-09-24T18:03:36.896Z,70.90
2022-09-24T18:07:00.489Z,70.60
2022-09-24T18:10:24.177Z,70.70
2022-09-24T18:13:54.226Z,70.80
2022-09-24T18:17:17.779Z,70.80
2022-09-24T18:20:42.080Z,70.70
2022-09-24T18:24:05.977Z,70.60
2022-09-24T18:27:36.324Z,70.60
2022-09-24T18:31:05.466Z,70.70
2022-09-24T18:34:29.742Z,70.60
2022-09-24T18:37:53.297Z,70.80
2022-09-24T18:41:20.725Z,70.90
2022-09-24T18:44:46.410Z,70.90
2022-09-24T18:48:11.360Z,70.90
2022-09-24T18:51:37.066Z,70.90
2022-09-24T18:55:00.847Z,70.70
2022-09-24T18:58:24.487Z,70.90
2022-09-24T19:01:50.705Z,71.00
2022-09-24T19:05:16.218Z,71.10
2022-09-24T19:08:40.673Z,71.00
2022-09-24T19:12:05.911Z,71.10
2022-09-24T19:15:29.607Z,71.20
2022-09-24T19:18:54.274Z,71.10
2022-09-24T19:22:19.217Z,70.90
2022-09-24T19:25:43.420Z,70.30
2022-09-24T19:29:07.127Z,70.50
2022-09-24T19:32:30.782Z,69.10
2022-09-24T19:35:56.425Z,68.80
2022-09-24T19:39:21.408Z,68.00
2022-09-24T19:42:45.010Z,67.60
2022-09-24T19:46:10.743Z,67.60
2022-09-24T19:49:34.340Z,67.60
2022-09-24T19:52:57.877Z,67.60
2022-09-24T19:56:25.252Z,67.10
2022-09-24T19:59:48.782Z,67.10
2022-09-24T20:03:13.407Z,67.20
2022-09-24T20:06:37.973Z,67.40
2022-09-24T20:10:01.657Z,67.10
2022-09-24T20:13:29.677Z,67.40
2022-09-24T20:16:53.231Z,67.30
2022-09-24T20:20:16.977Z,67.10
2022-09-24T20:23:40.553Z,68.10
2022-09-24T20:27:21.487Z,67.30
2022-09-24T20:30:46.826Z,67.20
2022-09-24T20:34:10.397Z,67.50
2022-09-24T20:37:34.052Z,67.50
2022-09-24T20:40:57.929Z,67.60
2022-09-24T20:44:21.970Z,67.80
2022-09-24T20:47:49.834Z,68.00
2022-09-24T20:51:15.887Z,68.20
2022-09-24T20:54:39.429Z,68.40
2022-09-24T20:58:03.035Z,68.40
2022-09-24T21:01:27.159Z,68.60
2022-09-24T21:04:52.314Z,68.60
2022-09-24T21:08:16.681Z,68.60
2022-09-24T21:11:41.822Z,69.00
2022-09-24T21:19:22.320Z,69.30
2022-09-24T21:22:47.225Z,69.40
2022-09-24T21:26:12.381Z,69.50
2022-09-24T21:29:35.960Z,69.50
2022-09-24T21:32:59.554Z,69.70
2022-09-24T21:36:25.394Z,69.70
2022-09-24T21:39:50.281Z,69.90
2022-09-24T21:43:14.257Z,70.30
2022-09-24T21:46:38.335Z,70.30
2022-09-24T21:50:03.119Z,70.30
2022-09-24T21:53:26.701Z,70.40
2022-09-24T21:56:54.166Z,70.20
2022-09-24T22:00:18.251Z,70.00
2022-09-24T22:03:47.560Z,70.10
2022-09-24T22:07:12.831Z,70.20
2022-09-24T22:10:38.393Z,70.40
2022-09-24T22:14:03.846Z,70.30
2022-09-24T22:17:28.327Z,70.40
2022-09-24T22:20:52.033Z,70.30
2022-09-24T22:24:16.408Z,70.00
2022-09-24T22:27:40.078Z,70.00
2022-09-24T22:31:08.072Z,70.00
2022-09-24T22:34:54.563Z,70.00
2022-09-24T22:38:18.774Z,70.00
2022-09-24T22:41:43.976Z,69.70
2022-09-24T22:45:08.728Z,69.50
2022-09-24T22:48:34.411Z,69.60
2022-09-24T22:51:59.046Z,69.50
2022-09-24T22:55:23.082Z,70.10
2022-09-24T22:58:52.447Z,69.50
2022-09-24T23:02:16.909Z,69.70
2022-09-24T23:05:43.009Z,69.60
2022-09-24T23:09:07.104Z,69.40
2022-09-24T23:12:33.406Z,69.50
2022-09-24T23:15:57.867Z,69.70
2022-09-24T23:19:21.877Z,69.40
2022-09-24T23:22:49.755Z,69.30
2022-09-24T23:26:17.029Z,69.50
2022-09-24T23:29:40.698Z,69.60
2022-09-24T23:33:07.517Z,69.60
2022-09-24T23:36:33.057Z,69.50
2022-09-24T23:40:01.459Z,69.40
2022-09-24T23:43:28.258Z,69.50
2022-09-24T23:46:51.998Z,69.40
2022-09-24T23:50:15.917Z,69.40
2022-09-24T23:53:41.357Z,69.20
2022-09-24T23:57:07.499Z,69.10
